createdAt,value
2019-01-23T00:25:25.932Z,-2.83
2019-01-23T00:27:55.287Z,-2.96
2019-01-23T00:30:24.626Z,-3.05
2019-01-23T00:32:54.578Z,-3.17
2019-01-23T00:35:24.261Z,-3.24
2019-01-23T00:37:53.895Z,-3.30
2019-01-23T00:40:23.244Z,-3.31
2019-01-23T00:42:52.606Z,-3.33
2019-01-23T00:45:41.588Z,-3.35
2019-01-23T00:48:11.248Z,-3.35
2019-01-23T00:50:59.689Z,-3.36
2019-01-23T00:53:29.371Z,-3.31
2019-01-23T00:55:58.687Z,-3.28
2019-01-23T00:58:28.683Z,-3.23
2019-01-23T01:09:50.765Z,-3.19
2019-01-23T01:12:20.522Z,-3.24
2019-01-23T01:14:50.178Z,-3.26
2019-01-23T01:17:19.515Z,-3.26
2019-01-23T01:19:48.871Z,-3.27
2019-01-23T01:22:18.399Z,-3.26
2019-01-23T01:24:48.621Z,-3.29
2019-01-23T01:27:18.259Z,-3.32
2019-01-23T01:29:47.616Z,-3.38
2019-01-23T01:32:17.233Z,-3.43
2019-01-23T01:34:46.695Z,-3.45
2019-01-23T01:37:16.337Z,-3.49
2019-01-23T01:39:45.708Z,-3.53
2019-01-23T01:42:15.664Z,-3.57
2019-01-23T01:44:45.008Z,-3.58
2019-01-23T01:47:14.540Z,-3.62
2019-01-23T01:49:43.905Z,-3.67
2019-01-23T01:52:13.439Z,-3.67
2019-01-23T01:54:42.803Z,-3.64
2019-01-23T01:57:12.403Z,-3.61
2019-01-23T01:59:42.106Z,-3.60
2019-01-23T02:02:11.546Z,-3.58
2019-01-23T02:04:40.915Z,-3.57
2019-01-23T02:07:10.516Z,-3.56
2019-01-23T02:09:39.993Z,-3.54
2019-01-23T02:12:28.902Z,-3.52
2019-01-23T02:14:58.523Z,-3.52
2019-01-23T02:17:28.776Z,-3.50
2019-01-23T02:19:58.429Z,-3.48
2019-01-23T02:22:40.803Z,-3.44
2019-01-23T02:25:10.759Z,-3.44
2019-01-23T02:27:40.495Z,-3.42
2019-01-23T02:30:31.897Z,-3.40
2019-01-23T02:33:02.328Z,-3.38
2019-01-23T02:35:31.988Z,-3.38
2019-01-23T02:38:01.682Z,-3.37
2019-01-23T02:40:31.655Z,-3.36
2019-01-23T02:43:00.996Z,-3.36
2019-01-23T02:45:30.651Z,-3.36
2019-01-23T02:47:59.992Z,-3.38
2019-01-23T02:50:29.649Z,-3.38
2019-01-23T02:52:59.001Z,-3.34
2019-01-23T02:55:43.339Z,-3.25
2019-01-23T02:58:12.690Z,-3.25
2019-01-23T03:00:42.069Z,-3.22
2019-01-23T03:03:11.569Z,-3.18
2019-01-23T03:05:40.926Z,-3.14
2019-01-23T03:08:10.563Z,-3.09
2019-01-23T03:10:40.127Z,-3.02
2019-01-23T03:13:09.696Z,-2.95
2019-01-23T03:15:39.047Z,-2.91
2019-01-23T03:18:08.676Z,-2.87
2019-01-23T03:20:38.332Z,-2.84
2019-01-23T03:23:07.810Z,-2.77
2019-01-23T03:25:37.471Z,-2.73
2019-01-23T03:28:06.832Z,-2.67
2019-01-23T03:30:36.425Z,-2.64
2019-01-23T03:33:06.038Z,-2.60
2019-01-23T03:35:35.671Z,-2.57
2019-01-23T03:38:05.037Z,-2.56
2019-01-23T03:40:34.672Z,-2.55
2019-01-23T03:43:04.028Z,-2.53
2019-01-23T03:45:34.115Z,-2.50
2019-01-23T03:48:03.775Z,-2.50
2019-01-23T03:50:33.343Z,-2.49
2019-01-23T03:53:02.844Z,-2.45
2019-01-23T03:55:32.190Z,-2.40
2019-01-23T03:58:02.120Z,-2.38
2019-01-23T04:00:31.760Z,-2.41
2019-01-23T04:03:01.451Z,-2.46
2019-01-23T04:05:31.188Z,-2.49
2019-01-23T04:08:00.938Z,-2.48
2019-01-23T04:10:30.583Z,-2.44
2019-01-23T04:12:59.944Z,-2.40
2019-01-23T04:15:29.356Z,-2.37
2019-01-23T04:18:18.274Z,-2.34
2019-01-23T04:20:47.904Z,-2.34
2019-01-23T04:23:17.265Z,-2.37
2019-01-23T04:29:06.036Z,-2.40
2019-01-23T04:31:35.645Z,-2.39
2019-01-23T04:34:06.948Z,-2.40
2019-01-23T04:36:55.410Z,-2.40
2019-01-23T04:39:25.004Z,-2.41
2019-01-23T04:41:54.305Z,-2.42
2019-01-23T04:44:23.812Z,-2.47
2019-01-23T04:46:53.149Z,-2.54
2019-01-23T04:49:22.794Z,-2.54
2019-01-23T04:55:01.254Z,-2.55
2019-01-23T04:57:30.891Z,-2.65
2019-01-23T05:00:00.252Z,-2.65
2019-01-23T05:02:35.283Z,-2.64
2019-01-23T05:05:25.794Z,-2.66
2019-01-23T05:07:55.127Z,-2.67
2019-01-23T05:10:24.771Z,-2.65
2019-01-23T05:12:54.108Z,-2.60
2019-01-23T05:15:23.464Z,-2.58
2019-01-23T05:18:01.260Z,-2.58
2019-01-23T05:20:30.944Z,-2.57
2019-01-23T05:23:00.311Z,-2.58
2019-01-23T05:25:29.940Z,-2.59
2019-01-23T05:27:59.301Z,-2.64
2019-01-23T05:30:29.351Z,-2.73
2019-01-23T05:32:59.007Z,-2.77
2019-01-23T05:35:45.377Z,-2.81
2019-01-23T05:38:15.018Z,-2.89
2019-01-23T05:40:44.372Z,-2.95
2019-01-23T05:43:14.205Z,-2.99
2019-01-23T05:45:43.860Z,-3.00
2019-01-23T05:48:34.111Z,-3.03
2019-01-23T05:51:03.766Z,-3.08
2019-01-23T05:53:33.276Z,-3.13
2019-01-23T05:56:02.897Z,-3.13
2019-01-23T05:58:32.317Z,-3.15
2019-01-23T06:01:01.933Z,-3.18
2019-01-23T06:03:32.247Z,-3.24
2019-01-23T06:06:21.454Z,-3.29
2019-01-23T06:08:50.933Z,-3.36
2019-01-23T06:11:20.283Z,-3.41
2019-01-23T06:13:49.916Z,-3.49
2019-01-23T06:16:21.140Z,-3.51
2019-01-23T06:18:50.480Z,-3.51
2019-01-23T06:21:20.277Z,-3.52
2019-01-23T06:23:49.930Z,-3.54
2019-01-23T06:26:19.275Z,-3.58
2019-01-23T06:28:48.634Z,-3.60
2019-01-23T06:31:37.649Z,-3.65
2019-01-23T06:34:28.143Z,-3.66
2019-01-23T06:36:57.483Z,-3.67
2019-01-23T06:39:27.170Z,-3.64
2019-01-23T06:41:56.498Z,-3.64
2019-01-23T06:44:27.475Z,-3.61
2019-01-23T06:47:16.183Z,-3.58
2019-01-23T06:49:47.420Z,-3.58
2019-01-23T06:52:17.053Z,-3.55
2019-01-23T06:54:46.735Z,-3.50
2019-01-23T06:57:16.155Z,-3.46
2019-01-23T06:59:45.505Z,-3.42
2019-01-23T07:02:15.199Z,-3.40
2019-01-23T07:04:46.187Z,-3.37
2019-01-23T07:07:15.541Z,-3.37
2019-01-23T07:13:19.293Z,-3.29
2019-01-23T07:15:48.927Z,-3.28
2019-01-23T07:18:18.546Z,-3.30
2019-01-23T07:20:48.116Z,-3.34
2019-01-23T07:23:17.450Z,-3.33
2019-01-23T07:25:47.101Z,-3.34
2019-01-23T07:28:16.675Z,-3.37
2019-01-23T07:30:46.232Z,-3.39
2019-01-23T07:33:15.573Z,-3.41
2019-01-23T07:35:45.520Z,-3.42
2019-01-23T07:38:15.160Z,-3.44
2019-01-23T07:40:44.913Z,-3.50
2019-01-23T07:43:14.251Z,-3.52
2019-01-23T07:46:23.655Z,-3.52
2019-01-23T07:48:53.673Z,-3.55
2019-01-23T07:51:23.263Z,-3.59
2019-01-23T07:54:11.726Z,-3.61
2019-01-23T07:56:41.377Z,-3.60
2019-01-23T07:59:11.052Z,-3.64
2019-01-23T08:01:40.707Z,-3.66
2019-01-23T08:04:10.380Z,-3.62
2019-01-23T08:06:39.739Z,-3.60
2019-01-23T08:09:09.362Z,-3.62
2019-01-23T08:11:39.010Z,-3.60
2019-01-23T08:14:08.480Z,-3.54
2019-01-23T08:16:37.832Z,-3.55
2019-01-23T08:19:07.389Z,-3.51
2019-01-23T08:21:50.545Z,-3.56
2019-01-23T08:24:20.189Z,-3.56
2019-01-23T08:26:49.539Z,-3.56
2019-01-23T08:29:18.881Z,-3.55
2019-01-23T08:31:48.430Z,-3.46
2019-01-23T08:34:18.062Z,-3.46
2019-01-23T08:36:47.414Z,-3.30
2019-01-23T08:39:16.755Z,-3.13
2019-01-23T08:41:46.713Z,-3.00
2019-01-23T08:44:16.347Z,-2.96
2019-01-23T08:46:45.693Z,-3.02
2019-01-23T08:49:15.720Z,-3.04
2019-01-23T08:51:45.357Z,-3.05
2019-01-23T08:54:14.715Z,-2.98
2019-01-23T08:56:44.675Z,-2.92
2019-01-23T08:59:14.024Z,-2.87
2019-01-23T09:02:02.544Z,-2.86
2019-01-23T09:04:32.214Z,-2.89
2019-01-23T09:07:01.823Z,-2.87
2019-01-23T09:09:31.488Z,-2.75
2019-01-23T09:12:00.868Z,-2.49
2019-01-23T09:14:30.764Z,-2.10
2019-01-23T09:17:00.408Z,-1.66
2019-01-23T09:19:29.985Z,-1.29
2019-01-23T09:21:59.781Z,-0.97
2019-01-23T09:27:44.828Z,-0.96
2019-01-23T09:30:54.568Z,-0.84
2019-01-23T09:37:18.325Z,-0.55
2019-01-23T09:43:28.269Z,-0.49
2019-01-23T09:46:36.332Z,-0.53
2019-01-23T09:52:46.251Z,-0.57
2019-01-23T09:55:15.599Z,-0.63
2019-01-23T09:57:57.535Z,-0.37
2019-01-23T10:01:06.941Z,-0.37
2019-01-23T10:03:38.066Z,-0.17
2019-01-23T10:06:26.749Z,0.01
2019-01-23T10:08:56.109Z,0.09
2019-01-23T10:11:25.572Z,0.17
2019-01-23T10:13:54.925Z,0.26
2019-01-23T10:16:24.574Z,0.36
2019-01-23T10:18:56.155Z,0.50
2019-01-23T10:21:44.353Z,0.66
2019-01-23T10:24:13.765Z,0.70
2019-01-23T10:26:43.126Z,0.82
2019-01-23T10:29:12.805Z,1.13
2019-01-23T10:31:42.144Z,1.20
2019-01-23T10:34:11.740Z,1.24
2019-01-23T10:36:41.389Z,1.24
2019-01-23T10:39:12.648Z,1.30
2019-01-23T10:41:41.982Z,1.33
2019-01-23T10:44:24.018Z,1.82
2019-01-23T10:46:53.951Z,1.82
2019-01-23T10:49:23.598Z,1.77
2019-01-23T10:51:53.271Z,1.52
2019-01-23T10:54:22.870Z,1.21
2019-01-23T10:56:52.041Z,1.01
2019-01-23T11:02:02.579Z,0.82
2019-01-23T11:04:32.058Z,0.76
2019-01-23T11:07:01.418Z,0.79
2019-01-23T11:09:31.306Z,0.86
2019-01-23T11:12:00.801Z,0.83
2019-01-23T11:14:30.252Z,0.90
2019-01-23T11:16:59.813Z,1.08
2019-01-23T11:19:30.538Z,0.95
2019-01-23T11:21:59.956Z,0.74
2019-01-23T11:24:34.819Z,0.77
2019-01-23T11:27:04.228Z,0.87
2019-01-23T11:29:33.881Z,1.07
2019-01-23T11:32:03.238Z,1.27
2019-01-23T11:34:32.880Z,1.23
2019-01-23T11:37:02.212Z,1.18
2019-01-23T11:39:32.641Z,1.18
2019-01-23T11:45:15.842Z,1.19
2019-01-23T11:47:45.546Z,0.99
2019-01-23T11:50:35.924Z,0.86
2019-01-23T11:53:27.887Z,0.94
2019-01-23T11:55:57.541Z,1.15
2019-01-23T11:58:26.981Z,1.16
2019-01-23T12:00:56.361Z,1.04
2019-01-23T12:03:25.863Z,0.94
2019-01-23T12:05:55.212Z,0.87
2019-01-23T12:08:43.881Z,1.02
2019-01-23T12:11:34.146Z,1.02
2019-01-23T12:14:03.483Z,1.10
2019-01-23T12:16:33.126Z,1.02
2019-01-23T12:19:04.347Z,0.77
2019-01-23T12:21:54.753Z,0.69
2019-01-23T12:24:24.811Z,0.69
2019-01-23T12:27:00.278Z,0.61
2019-01-23T12:29:30.328Z,0.66
2019-01-23T12:32:12.009Z,0.67
2019-01-23T12:34:41.535Z,0.66
2019-01-23T12:37:11.070Z,0.74
2019-01-23T12:39:40.756Z,0.64
2019-01-23T12:42:10.357Z,0.50
2019-01-23T12:44:40.319Z,0.34
2019-01-23T12:47:11.283Z,0.24
2019-01-23T12:49:40.618Z,0.18
2019-01-23T12:52:12.489Z,0.26
2019-01-23T12:54:54.212Z,0.50
2019-01-23T12:57:23.555Z,0.44
2019-01-23T12:59:53.041Z,0.44
2019-01-23T13:02:22.420Z,0.29
2019-01-23T13:08:13.474Z,0.33
2019-01-23T13:10:43.661Z,0.26
2019-01-23T13:13:13.231Z,0.14
2019-01-23T13:15:42.571Z,0.04
2019-01-23T13:18:12.117Z,-0.06
2019-01-23T13:21:01.086Z,-0.30
2019-01-23T13:23:43.064Z,-0.23
2019-01-23T13:26:12.407Z,-0.23
2019-01-23T13:28:41.795Z,-0.22
2019-01-23T13:31:11.254Z,-0.27
2019-01-23T13:33:40.610Z,-0.39
2019-01-23T13:36:10.449Z,-0.48
2019-01-23T13:38:40.423Z,-0.51
2019-01-23T13:41:09.802Z,-0.46
2019-01-23T13:43:39.442Z,-0.49
2019-01-23T13:46:09.101Z,-0.59
2019-01-23T13:48:38.451Z,-0.70
2019-01-23T13:51:08.091Z,-0.75
2019-01-23T13:53:37.735Z,-0.69
2019-01-23T13:56:07.276Z,-0.65
2019-01-23T13:58:41.719Z,-0.60
2019-01-23T14:01:13.110Z,-0.61
2019-01-23T14:03:42.755Z,-0.63
2019-01-23T14:06:12.348Z,-0.64
2019-01-23T14:08:41.774Z,-0.64
2019-01-23T14:11:11.288Z,-0.67
2019-01-23T14:13:40.899Z,-0.64
2019-01-23T14:16:10.244Z,-0.58
2019-01-23T14:18:39.892Z,-0.61
2019-01-23T14:21:09.366Z,-0.65
2019-01-23T14:23:39.067Z,-0.70
2019-01-23T14:26:08.478Z,-0.82
2019-01-23T14:28:57.188Z,-0.91
2019-01-23T14:31:26.526Z,-0.96
2019-01-23T14:33:55.880Z,-1.05
2019-01-23T14:36:26.853Z,-1.13
2019-01-23T14:38:56.893Z,-1.15
2019-01-23T14:41:26.572Z,-1.17
2019-01-23T14:43:56.231Z,-1.25
2019-01-23T14:46:25.571Z,-1.38
2019-01-23T14:48:55.226Z,-1.38
2019-01-23T14:51:24.594Z,-1.28
2019-01-23T14:53:53.955Z,-1.21
2019-01-23T14:56:42.698Z,-1.23
2019-01-23T14:59:12.054Z,-1.28
2019-01-23T15:01:41.687Z,-1.33
2019-01-23T15:04:23.426Z,-1.33
2019-01-23T15:06:52.766Z,-1.33
2019-01-23T15:09:22.516Z,-1.38
2019-01-23T15:11:51.855Z,-1.39
2019-01-23T15:14:21.528Z,-1.34
2019-01-23T15:16:51.003Z,-1.26
2019-01-23T15:19:20.601Z,-1.24
2019-01-23T15:21:49.951Z,-1.20
2019-01-23T15:24:19.944Z,-1.21
2019-01-23T15:26:49.690Z,-1.33
2019-01-23T15:29:19.043Z,-1.42
2019-01-23T15:31:48.753Z,-1.49
2019-01-23T15:43:17.562Z,-1.65
2019-01-23T15:45:52.986Z,-1.58
2019-01-23T15:48:22.646Z,-1.60
2019-01-23T15:50:51.989Z,-1.50
2019-01-23T15:53:22.193Z,-1.49
2019-01-23T15:56:12.396Z,-1.56
2019-01-23T15:58:42.052Z,-1.57
2019-01-23T16:01:11.698Z,-1.60
2019-01-23T16:03:41.252Z,-1.61
2019-01-23T16:06:10.765Z,-1.62
2019-01-23T16:08:40.245Z,-1.64
2019-01-23T16:11:09.655Z,-1.67
2019-01-23T16:13:42.466Z,-1.70
2019-01-23T16:16:29.163Z,-1.74
2019-01-23T16:18:58.817Z,-1.85
2019-01-23T16:21:28.156Z,-1.92
2019-01-23T16:23:57.800Z,-1.94
2019-01-23T16:26:27.129Z,-1.97
2019-01-23T16:28:56.768Z,-1.97
2019-01-23T18:03:52.224Z,-2.82
2019-01-23T18:06:21.585Z,-2.86
2019-01-23T18:08:51.257Z,-2.88
2019-01-23T18:11:20.912Z,-2.87
2019-01-23T18:13:50.609Z,-2.84
2019-01-23T18:16:19.989Z,-2.82
2019-01-23T18:19:08.755Z,-2.80
2019-01-23T18:21:38.422Z,-2.78
2019-01-23T18:24:08.126Z,-2.75
2019-01-23T18:26:37.788Z,-2.74
2019-01-23T18:29:08.945Z,-2.72
2019-01-23T18:31:38.549Z,-2.71
2019-01-23T18:34:46.686Z,-2.68
2019-01-23T18:37:56.095Z,-2.66
2019-01-23T18:47:08.302Z,-2.59
2019-01-23T18:49:58.870Z,-2.57
2019-01-23T18:52:28.532Z,-2.52
2019-01-23T18:54:58.024Z,-2.50
2019-01-23T18:57:46.729Z,-2.50
2019-01-23T19:00:37.086Z,-2.50
2019-01-23T19:03:07.084Z,-2.52
2019-01-23T19:05:43.391Z,-2.52
2019-01-23T19:08:13.123Z,-2.51
2019-01-23T19:10:42.542Z,-2.53
2019-01-23T19:13:12.086Z,-2.56
2019-01-23T19:15:41.438Z,-2.50
2019-01-23T19:18:11.418Z,-2.51
2019-01-23T19:20:41.066Z,-2.55
2019-01-23T19:23:10.431Z,-2.59
2019-01-23T19:25:40.050Z,-2.55
2019-01-23T19:28:09.662Z,-2.49
2019-01-23T19:30:39.372Z,-2.45
2019-01-23T19:33:13.465Z,-2.47
2019-01-23T19:53:40.556Z,-2.64
2019-01-23T19:56:10.158Z,-2.64
2019-01-23T19:58:39.510Z,-2.59
2019-01-23T20:01:09.155Z,-2.57
2019-01-23T20:03:38.838Z,-2.61
2019-01-23T20:06:08.593Z,-2.60
2019-01-23T20:08:38.243Z,-2.56
2019-01-23T20:11:07.602Z,-2.54
2019-01-23T20:13:37.480Z,-2.55
2019-01-23T20:16:07.123Z,-2.59
2019-01-23T20:18:36.650Z,-2.57
2019-01-23T20:21:06.251Z,-2.55
2019-01-23T20:23:35.618Z,-2.51
2019-01-23T20:26:05.274Z,-2.47
2019-01-23T20:28:34.936Z,-2.49
2019-01-23T20:31:04.436Z,-2.55
2019-01-23T20:33:33.798Z,-2.58
2019-01-23T20:36:03.501Z,-2.59
2019-01-23T20:38:33.202Z,-2.61
2019-01-23T20:41:02.562Z,-2.60
2019-01-23T20:43:31.921Z,-2.63
2019-01-23T20:46:01.427Z,-2.67
2019-01-23T20:48:31.718Z,-2.64
2019-01-23T20:51:01.413Z,-2.59
2019-01-23T20:53:31.674Z,-2.48
2019-01-23T20:56:01.293Z,-2.48
2019-01-23T20:58:31.666Z,-2.43
2019-01-23T21:01:01.625Z,-2.42
2019-01-23T21:03:35.092Z,-2.47
2019-01-23T21:06:16.357Z,-2.44
2019-01-23T21:08:45.738Z,-2.47
2019-01-23T21:11:15.316Z,-2.45
2019-01-23T21:13:45.010Z,-2.43
2019-01-23T21:16:14.513Z,-2.42
2019-01-23T21:18:43.861Z,-2.39
2019-01-23T21:21:13.391Z,-2.38
2019-01-23T21:23:43.115Z,-2.37
2019-01-23T21:26:12.469Z,-2.35
2019-01-23T21:31:29.286Z,-2.28
2019-01-23T21:33:58.647Z,-2.27
2019-01-23T21:36:28.299Z,-2.27
2019-01-23T21:38:57.684Z,-2.26
2019-01-23T21:41:27.330Z,-2.24
2019-01-23T21:43:56.960Z,-2.28
2019-01-23T21:46:26.595Z,-2.29
2019-01-23T21:49:35.989Z,-2.26
2019-01-23T21:52:05.783Z,-2.26
2019-01-23T21:54:35.447Z,-2.24
2019-01-23T21:57:04.876Z,-2.21
2019-01-23T21:59:34.529Z,-2.22
2019-01-23T22:02:04.742Z,-2.19
2019-01-23T22:04:34.100Z,-2.20
2019-01-23T22:07:17.288Z,-2.27
2019-01-23T22:09:46.782Z,-2.29
2019-01-23T22:12:16.424Z,-2.27
2019-01-23T22:14:45.794Z,-2.22
2019-01-23T22:17:15.523Z,-2.21
2019-01-23T22:19:45.169Z,-2.24
2019-01-23T22:22:14.647Z,-2.19
2019-01-23T22:27:53.132Z,-2.10
2019-01-23T22:31:02.621Z,-2.14
2019-01-23T22:33:32.073Z,-2.21
2019-01-23T22:36:01.520Z,-2.22
2019-01-23T22:38:31.904Z,-2.21
2019-01-23T22:41:01.553Z,-2.23
2019-01-23T22:43:32.029Z,-2.24
2019-01-23T22:48:56.900Z,-2.26
2019-01-23T22:51:26.271Z,-2.31
2019-01-23T22:53:55.655Z,-2.36
2019-01-23T22:56:25.018Z,-2.42
2019-01-23T22:58:55.986Z,-2.48
2019-01-23T23:02:06.728Z,-2.50
2019-01-23T23:04:55.445Z,-2.52
2019-01-23T23:07:25.054Z,-2.52
2019-01-23T23:09:54.707Z,-2.47
2019-01-23T23:12:24.054Z,-2.49
2019-01-23T23:14:53.606Z,-2.51
2019-01-23T23:17:25.364Z,-2.49
2019-01-23T23:19:54.707Z,-2.47
2019-01-23T23:22:24.069Z,-2.43
2019-01-23T23:24:53.741Z,-2.49
2019-01-23T23:27:23.074Z,-2.43
2019-01-23T23:29:52.702Z,-2.41
2019-01-23T23:32:22.071Z,-2.39
2019-01-23T23:34:51.616Z,-2.32
2019-01-23T23:37:20.988Z,-2.29
2019-01-23T23:39:50.628Z,-2.30
2019-01-23T23:42:19.999Z,-2.29
2019-01-23T23:45:29.627Z,-2.30
2019-01-23T23:48:19.915Z,-2.29
2019-01-23T23:50:49.866Z,-2.28
2019-01-23T23:53:19.239Z,-2.32
2019-01-23T23:55:48.782Z,-2.37
2019-01-23T23:58:18.160Z,-2.41
